createdAt,value
2018-05-24T00:00:57.808Z,99106.53
2018-05-24T00:03:25.622Z,99106.94
2018-05-24T00:05:53.441Z,99107.80
2018-05-24T00:08:21.168Z,99093.95
2018-05-24T00:10:48.912Z,99107.23
2018-05-24T00:13:16.528Z,99101.09
2018-05-24T00:15:44.315Z,99100.67
2018-05-24T00:18:11.893Z,99100.40
2018-05-24T00:20:39.574Z,99098.22
2018-05-24T00:23:07.368Z,99100.57
2018-05-24T00:25:35.421Z,99097.56
2018-05-24T00:28:03.209Z,99095.17
2018-05-24T00:30:31.024Z,99098.80
2018-05-24T00:32:58.943Z,99105.02
2018-05-24T00:35:26.674Z,99097.23
2018-05-24T00:37:54.276Z,99088.88
2018-05-24T00:40:22.404Z,99095.14
2018-05-24T00:42:50.137Z,99095.39
2018-05-24T00:45:17.850Z,99087.44
2018-05-24T00:47:45.470Z,99087.70
2018-05-24T00:50:13.095Z,99086.30
2018-05-24T00:52:41.793Z,99083.45
2018-05-24T00:55:21.354Z,99081.63
2018-05-24T00:57:49.174Z,99082.29
2018-05-24T01:00:17.140Z,99078.05
2018-05-24T01:02:46.894Z,99081.02
2018-05-24T01:05:14.495Z,99073.23
2018-05-24T01:07:42.352Z,99080.02
2018-05-24T01:10:10.162Z,99071.09
2018-05-24T01:12:37.992Z,99069.64
2018-05-24T01:15:05.683Z,99065.36
2018-05-24T01:17:33.528Z,99070.12
2018-05-24T01:20:01.154Z,99062.81
2018-05-24T01:22:28.964Z,99058.41
2018-05-24T01:24:56.585Z,99062.06
2018-05-24T01:27:25.290Z,99043.80
2018-05-24T01:29:52.947Z,99055.52
2018-05-24T01:32:20.741Z,99052.56
2018-05-24T01:34:48.329Z,99056.91
2018-05-24T01:37:27.717Z,99052.33
2018-05-24T01:39:55.304Z,99056.59
2018-05-24T01:42:22.953Z,99048.89
2018-05-24T01:44:50.655Z,99053.06
2018-05-24T01:47:18.217Z,99051.58
2018-05-24T01:49:46.013Z,99026.83
2018-05-24T01:52:13.608Z,99046.09
2018-05-24T01:54:41.345Z,99050.58
2018-05-24T01:57:08.925Z,99045.90
2018-05-24T01:59:36.782Z,99044.99
2018-05-24T02:02:04.449Z,99046.14
2018-05-24T02:04:32.096Z,99042.54
2018-05-24T02:06:59.710Z,99045.55
2018-05-24T02:09:27.430Z,99039.66
2018-05-24T02:11:55.185Z,99044.22
2018-05-24T02:14:22.991Z,99040.14
2018-05-24T02:16:50.636Z,99049.88
2018-05-24T02:19:18.397Z,99041.79
2018-05-24T02:21:45.984Z,99054.80
2018-05-24T02:24:13.585Z,99053.08
2018-05-24T02:26:41.168Z,99050.84
2018-05-24T02:29:08.869Z,99053.52
2018-05-24T02:31:36.452Z,99047.42
2018-05-24T02:34:04.496Z,99050.38
2018-05-24T02:36:32.157Z,99052.08
2018-05-24T02:38:59.741Z,99056.27
2018-05-24T02:41:27.362Z,99061.34
2018-05-24T02:43:55.114Z,99064.92
2018-05-24T02:46:22.704Z,99061.98
2018-05-24T02:48:50.284Z,99057.55
2018-05-24T02:51:17.941Z,99069.46
2018-05-24T02:53:45.612Z,99064.26
2018-05-24T02:56:13.190Z,99058.83
2018-05-24T02:58:40.806Z,99065.05
2018-05-24T03:01:08.537Z,99068.50
2018-05-24T03:03:36.265Z,99074.50
2018-05-24T03:06:03.862Z,99061.42
2018-05-24T03:08:31.598Z,99069.88
2018-05-24T03:10:59.180Z,99074.95
2018-05-24T03:13:26.929Z,99073.42
2018-05-24T03:15:54.706Z,99072.20
2018-05-24T03:18:22.284Z,99071.84
2018-05-24T03:20:50.081Z,99077.55
2018-05-24T03:23:17.680Z,99070.70
2018-05-24T03:25:45.429Z,99069.71
2018-05-24T03:28:13.023Z,99071.87
2018-05-24T03:30:40.789Z,99070.33
2018-05-24T03:33:08.392Z,99066.97
2018-05-24T03:35:36.244Z,99064.09
2018-05-24T03:38:03.941Z,99066.48
2018-05-24T03:40:31.536Z,99065.48
2018-05-24T03:42:59.378Z,99061.56
2018-05-24T03:45:26.973Z,99066.80
2018-05-24T03:47:54.610Z,99067.28
2018-05-24T03:50:22.216Z,99063.43
2018-05-24T03:52:50.128Z,99056.00
2018-05-24T03:55:17.821Z,99058.94
2018-05-24T03:57:46.838Z,99060.12
2018-05-24T04:00:27.007Z,99053.56
2018-05-24T04:03:07.386Z,99051.77
2018-05-24T04:05:35.438Z,99059.13
2018-05-24T04:08:03.154Z,99051.58
2018-05-24T04:10:31.715Z,99047.73
2018-05-24T04:12:59.639Z,99048.86
2018-05-24T04:15:27.481Z,99060.31
2018-05-24T04:17:55.177Z,99063.27
2018-05-24T04:20:22.986Z,99067.50
2018-05-24T04:22:50.634Z,99068.90
2018-05-24T04:25:18.455Z,99068.07
2018-05-24T04:27:46.175Z,99069.72
2018-05-24T04:30:13.922Z,99073.95
2018-05-24T04:32:41.500Z,99076.22
2018-05-24T04:35:09.092Z,99068.53
2018-05-24T04:37:37.059Z,99068.74
2018-05-24T04:40:05.491Z,99070.68
2018-05-24T04:42:33.201Z,99078.91
2018-05-24T04:45:01.768Z,99074.20
2018-05-24T04:47:29.424Z,99072.77
2018-05-24T04:49:57.057Z,99077.60
2018-05-24T04:52:24.644Z,99068.94
2018-05-24T04:54:52.280Z,99073.08
2018-05-24T04:57:19.917Z,99070.26
2018-05-24T04:59:47.505Z,99073.78
2018-05-24T05:02:15.232Z,99072.77
2018-05-24T05:04:42.855Z,99075.50
2018-05-24T05:07:10.436Z,99069.68
2018-05-24T05:09:38.025Z,99071.17
2018-05-24T05:12:05.668Z,99073.83
2018-05-24T05:14:33.589Z,99075.33
2018-05-24T05:17:01.346Z,99071.06
2018-05-24T05:19:29.080Z,99075.75
2018-05-24T05:21:56.793Z,99072.69
2018-05-24T05:24:24.574Z,99078.89
2018-05-24T05:26:52.418Z,99076.23
2018-05-24T05:29:20.000Z,99079.35
2018-05-24T05:31:47.645Z,99074.16
2018-05-24T05:34:15.224Z,99075.42
2018-05-24T05:36:42.812Z,99074.74
2018-05-24T05:39:10.398Z,99069.84
2018-05-24T05:41:37.980Z,99069.84
2018-05-24T05:44:05.745Z,99072.80
2018-05-24T05:46:33.324Z,99068.52
2018-05-24T05:49:00.944Z,99066.41
2018-05-24T05:51:28.746Z,99072.70
2018-05-24T05:53:56.516Z,99074.67
2018-05-24T05:56:24.816Z,99077.65
2018-05-24T05:58:52.396Z,99074.25
2018-05-24T06:01:20.188Z,99074.42
2018-05-24T06:03:47.969Z,99073.70
2018-05-24T06:06:15.641Z,99065.11
2018-05-24T06:08:43.311Z,99073.54
2018-05-24T06:11:10.897Z,99081.39
2018-05-24T06:13:38.497Z,99073.25
2018-05-24T06:16:06.375Z,99072.34
2018-05-24T06:18:33.960Z,99077.02
2018-05-24T06:21:01.545Z,99076.59
2018-05-24T06:23:29.436Z,99084.05
2018-05-24T06:25:56.993Z,99074.86
2018-05-24T06:28:24.885Z,99076.11
2018-05-24T06:30:52.693Z,99075.55
2018-05-24T06:33:20.311Z,99081.31
2018-05-24T06:35:48.673Z,99075.95
2018-05-24T06:38:16.548Z,99073.22
2018-05-24T06:40:44.381Z,99078.70
2018-05-24T06:43:12.221Z,99078.39
2018-05-24T06:45:40.020Z,99072.80
2018-05-24T06:48:07.618Z,99079.45
2018-05-24T06:50:35.456Z,99070.87
2018-05-24T06:53:03.044Z,99080.53
2018-05-24T06:55:30.620Z,99076.78
2018-05-24T06:57:58.411Z,99067.14
2018-05-24T07:00:26.230Z,99065.03
2018-05-24T07:02:53.825Z,99062.72
2018-05-24T07:05:21.420Z,99059.38
2018-05-24T07:07:48.988Z,99060.03
2018-05-24T07:10:16.572Z,99057.14
2018-05-24T07:12:44.223Z,99063.48
2018-05-24T07:15:11.864Z,99062.84
2018-05-24T07:17:39.588Z,99065.39
2018-05-24T07:20:07.173Z,99065.52
2018-05-24T07:22:34.764Z,99062.17
2018-05-24T07:25:02.348Z,99060.92
2018-05-24T07:27:29.945Z,99068.61
2018-05-24T07:29:57.530Z,99063.98
2018-05-24T07:32:25.177Z,99073.34
2018-05-24T07:34:52.985Z,99067.36
2018-05-24T07:37:20.575Z,99068.86
2018-05-24T07:39:48.225Z,99072.13
2018-05-24T07:42:15.741Z,99070.33
2018-05-24T07:44:43.554Z,99074.41
2018-05-24T07:47:11.130Z,99070.16
2018-05-24T07:49:38.837Z,99075.63
2018-05-24T07:52:06.591Z,99072.83
2018-05-24T07:54:34.164Z,99076.63
2018-05-24T07:57:01.946Z,99081.91
2018-05-24T07:59:29.763Z,99077.97
2018-05-24T08:01:57.412Z,99078.59
2018-05-24T08:04:24.996Z,99072.73
2018-05-24T08:06:52.817Z,99075.12
2018-05-24T08:09:20.401Z,99059.89
2018-05-24T08:11:48.127Z,99067.17
2018-05-24T08:14:15.761Z,99064.10
2018-05-24T08:16:43.391Z,99068.77
2018-05-24T08:19:11.116Z,99068.16
2018-05-24T08:21:38.931Z,99070.17
2018-05-24T08:24:06.747Z,99073.41
2018-05-24T08:26:34.333Z,99074.30
2018-05-24T08:29:01.905Z,99072.78
2018-05-24T08:31:29.542Z,99065.77
2018-05-24T08:33:57.116Z,99066.42
2018-05-24T08:36:24.813Z,99063.54
2018-05-24T08:38:52.425Z,99060.86
2018-05-24T08:41:20.109Z,99064.41
2018-05-24T08:43:47.696Z,99069.55
2018-05-24T08:46:15.273Z,99058.64
2018-05-24T08:48:42.921Z,99067.00
2018-05-24T08:51:10.508Z,99065.00
2018-05-24T08:53:38.262Z,99067.20
2018-05-24T08:56:06.081Z,99066.34
2018-05-24T08:58:33.673Z,99066.32
2018-05-24T09:01:01.273Z,99062.66
2018-05-24T09:03:28.848Z,99066.74
2018-05-24T09:05:56.476Z,99068.89
2018-05-24T09:08:24.048Z,99070.22
2018-05-24T09:10:51.888Z,99053.12
2018-05-24T09:13:19.708Z,99056.59
2018-05-24T09:15:47.276Z,99056.20
2018-05-24T09:18:14.896Z,99052.60
2018-05-24T09:20:42.464Z,99057.25
2018-05-24T09:23:10.281Z,99049.84
2018-05-24T09:25:38.098Z,99042.56
2018-05-24T09:28:05.841Z,99046.92
2018-05-24T09:30:33.635Z,99041.56
2018-05-24T09:33:01.214Z,99040.08
2018-05-24T09:35:28.788Z,99041.88
2018-05-24T09:37:56.380Z,99041.53
2018-05-24T09:40:24.010Z,99032.69
2018-05-24T09:42:51.825Z,99037.22
2018-05-24T09:45:19.404Z,99032.97
2018-05-24T09:47:46.981Z,99035.59
2018-05-24T09:50:14.557Z,99034.39
2018-05-24T09:52:42.132Z,99028.36
2018-05-24T09:55:09.778Z,99023.20
2018-05-24T09:57:37.533Z,99014.73
2018-05-24T10:00:05.268Z,99014.98
2018-05-24T10:02:33.071Z,99019.30
2018-05-24T10:05:00.651Z,99013.56
2018-05-24T10:07:28.240Z,99000.80
2018-05-24T10:09:55.824Z,99000.52
2018-05-24T10:12:23.409Z,98998.75
2018-05-24T10:14:51.008Z,98997.61
2018-05-24T10:17:18.656Z,99000.58
2018-05-24T10:19:46.228Z,99001.90
2018-05-24T10:22:13.855Z,98999.70
2018-05-24T10:24:41.434Z,98997.34
2018-05-24T10:27:09.014Z,98997.94
2018-05-24T10:29:36.867Z,98986.13
2018-05-24T10:32:04.470Z,98991.73
2018-05-24T10:34:32.148Z,98998.85
2018-05-24T10:37:00.109Z,98992.52
2018-05-24T10:39:27.990Z,98989.36
2018-05-24T10:41:55.574Z,98986.00
2018-05-24T10:44:23.278Z,98979.70
2018-05-24T10:46:50.855Z,98991.16
2018-05-24T10:49:18.614Z,99000.39
2018-05-24T10:51:46.240Z,98992.34
2018-05-24T10:54:14.133Z,99001.22
2018-05-24T10:56:41.719Z,98999.20
2018-05-24T10:59:09.311Z,99001.50
2018-05-24T11:01:36.901Z,98993.23
2018-05-24T11:04:04.724Z,98993.36
2018-05-24T11:06:32.542Z,98992.83
2018-05-24T11:09:00.172Z,98988.23
2018-05-24T11:11:27.754Z,98983.16
2018-05-24T11:13:55.332Z,98983.48
2018-05-24T11:16:22.965Z,98982.51
2018-05-24T11:18:50.837Z,98977.31
2018-05-24T11:21:18.652Z,98983.69
2018-05-24T11:23:46.234Z,98980.39
2018-05-24T11:26:13.877Z,98971.27
2018-05-24T11:28:41.560Z,98961.16
2018-05-24T11:31:09.056Z,98966.61
2018-05-24T11:33:36.640Z,98968.99
2018-05-24T11:36:04.290Z,98970.02
2018-05-24T11:38:31.841Z,98970.12
2018-05-24T11:40:59.427Z,98962.99
2018-05-24T11:43:27.108Z,98963.14
2018-05-24T11:45:54.671Z,98958.52
2018-05-24T11:48:22.244Z,98960.38
2018-05-24T11:50:49.828Z,98959.22
2018-05-24T11:53:17.411Z,98961.75
2018-05-24T11:55:45.016Z,98965.55
2018-05-24T11:58:12.600Z,98954.64
2018-05-24T12:00:40.234Z,98947.60
2018-05-24T12:03:07.808Z,98956.36
2018-05-24T12:05:35.381Z,98952.52
2018-05-24T12:08:02.989Z,98944.91
2018-05-24T12:10:30.565Z,98940.98
2018-05-24T12:12:58.152Z,98938.73
2018-05-24T12:15:25.705Z,98938.53
2018-05-24T12:17:53.437Z,98933.36
2018-05-24T12:20:21.022Z,98931.18
2018-05-24T12:22:48.632Z,98934.55
2018-05-24T12:25:16.229Z,98927.71
2018-05-24T12:27:43.807Z,98929.02
2018-05-24T12:30:11.399Z,98932.88
2018-05-24T12:32:38.973Z,98927.22
2018-05-24T12:35:06.613Z,98925.97
2018-05-24T12:37:34.167Z,98927.11
2018-05-24T12:40:01.746Z,98921.48
2018-05-24T12:42:29.333Z,98916.02
2018-05-24T12:44:56.903Z,98917.06
2018-05-24T12:47:24.470Z,98916.35
2018-05-24T12:49:52.057Z,98907.27
2018-05-24T12:52:19.694Z,98908.02
2018-05-24T12:54:47.268Z,98919.43
2018-05-24T12:57:14.844Z,98911.05
2018-05-24T12:59:42.436Z,98910.60
2018-05-24T13:02:10.016Z,98900.36
2018-05-24T13:04:37.608Z,98899.30
2018-05-24T13:07:05.219Z,98900.36
2018-05-24T13:09:32.850Z,98893.12
2018-05-24T13:12:00.428Z,98886.59
2018-05-24T13:14:28.009Z,98879.85
2018-05-24T13:16:55.639Z,98876.72
2018-05-24T13:19:23.201Z,98868.58
2018-05-24T13:21:50.807Z,98871.88
2018-05-24T13:24:18.381Z,98881.00
2018-05-24T13:26:46.025Z,98873.64
2018-05-24T13:29:13.630Z,98867.71
2018-05-24T13:31:41.205Z,98866.63
2018-05-24T13:34:08.789Z,98869.81
2018-05-24T13:36:36.368Z,98856.95
2018-05-24T13:39:04.120Z,98856.48
2018-05-24T13:41:31.692Z,98857.13
2018-05-24T13:43:59.281Z,98848.48
2018-05-24T13:46:26.872Z,98849.77
2018-05-24T13:48:54.500Z,98852.88
2018-05-24T13:51:22.136Z,98851.89
2018-05-24T13:53:49.754Z,98855.97
2018-05-24T13:56:17.413Z,98851.85
2018-05-24T13:58:44.997Z,98854.94
2018-05-24T14:01:12.576Z,98852.76
2018-05-24T14:03:40.312Z,98857.14
2018-05-24T14:06:07.888Z,98853.12
2018-05-24T14:08:35.478Z,98855.98
2018-05-24T14:11:03.110Z,98862.24
2018-05-24T14:13:30.695Z,98857.14
2018-05-24T14:15:58.328Z,98863.71
2018-05-24T14:18:25.906Z,98864.89
2018-05-24T14:20:53.496Z,98857.48
2018-05-24T14:23:21.081Z,98855.16
2018-05-24T14:25:48.652Z,98841.61
2018-05-24T14:28:16.281Z,98847.92
2018-05-24T14:30:43.863Z,98836.09
2018-05-24T14:33:11.448Z,98836.11
2018-05-24T14:35:39.029Z,98836.39
2018-05-24T14:38:06.649Z,98835.19
2018-05-24T14:40:34.279Z,98835.17
2018-05-24T14:43:01.900Z,98840.68
2018-05-24T14:45:29.488Z,98836.08
2018-05-24T14:47:57.074Z,98836.94
2018-05-24T14:50:24.653Z,98836.66
2018-05-24T14:52:52.297Z,98841.84
2018-05-24T14:55:19.871Z,98840.91
2018-05-24T14:57:47.448Z,98834.83
2018-05-24T15:00:15.037Z,98840.36
2018-05-24T15:02:42.617Z,98836.20
2018-05-24T15:05:10.252Z,98835.50
2018-05-24T15:07:37.823Z,98839.95
2018-05-24T15:10:05.441Z,98836.74
2018-05-24T15:12:33.024Z,98839.00
2018-05-24T15:15:00.605Z,98837.11
2018-05-24T15:17:28.191Z,98835.30
2018-05-24T15:19:55.780Z,98828.02
2018-05-24T15:22:23.404Z,98832.77
2018-05-24T15:24:50.988Z,98825.84
2018-05-24T15:27:18.568Z,98828.82
2018-05-24T15:29:46.157Z,98831.70
2018-05-24T15:32:13.732Z,98833.81
2018-05-24T15:34:41.385Z,98835.58
2018-05-24T15:37:08.966Z,98836.97
2018-05-24T15:39:36.553Z,98832.30
2018-05-24T15:42:04.147Z,98819.94
2018-05-24T15:44:31.776Z,98832.20
2018-05-24T15:46:59.430Z,98831.00
2018-05-24T15:49:27.027Z,98831.05
2018-05-24T15:51:54.605Z,98827.11
2018-05-24T15:54:22.193Z,98824.64
2018-05-24T15:56:49.769Z,98825.19
2018-05-24T15:59:17.408Z,98826.48
2018-05-24T16:01:44.984Z,98819.51
2018-05-24T16:04:12.559Z,98826.38
2018-05-24T16:06:40.173Z,98825.02
2018-05-24T16:09:07.752Z,98823.41
2018-05-24T16:11:35.385Z,98831.01
2018-05-24T16:14:03.056Z,98835.73
2018-05-24T16:16:30.628Z,98839.28
2018-05-24T16:18:58.215Z,98842.58
2018-05-24T16:21:25.787Z,98843.32
2018-05-24T16:23:53.438Z,98852.70
2018-05-24T16:26:21.016Z,98859.94
2018-05-24T16:28:48.592Z,98852.41
2018-05-24T16:31:16.199Z,98851.63
2018-05-24T16:33:43.841Z,98854.72
2018-05-24T16:36:11.484Z,98851.00
2018-05-24T16:38:39.064Z,98851.23
2018-05-24T16:41:06.669Z,98857.19
2018-05-24T16:43:34.261Z,98861.47
2018-05-24T16:46:01.893Z,98865.73
2018-05-24T16:48:29.834Z,98866.86
2018-05-24T16:50:57.420Z,98870.74
2018-05-24T16:53:24.997Z,98877.86
2018-05-24T16:55:52.593Z,98880.94
2018-05-24T16:58:20.310Z,98883.74
2018-05-24T17:00:48.125Z,98896.20
2018-05-24T17:03:15.944Z,98908.27
2018-05-24T17:05:43.538Z,98907.23
2018-05-24T17:08:11.140Z,98907.63
2018-05-24T17:10:38.729Z,98900.14
2018-05-24T17:13:06.578Z,98901.91
2018-05-24T17:15:34.219Z,98894.88
2018-05-24T17:18:02.055Z,98892.27
2018-05-24T17:20:29.705Z,98897.65
2018-05-24T17:22:57.280Z,98895.81
2018-05-24T17:25:24.986Z,98898.34
2018-05-24T17:27:52.570Z,98898.14
2018-05-24T17:30:20.319Z,98900.59
2018-05-24T17:32:47.908Z,98904.47
2018-05-24T17:35:15.684Z,98897.25
2018-05-24T17:37:43.272Z,98897.66
2018-05-24T17:40:10.854Z,98901.73
2018-05-24T17:42:38.486Z,98902.56
2018-05-24T17:45:06.099Z,98906.13
2018-05-24T17:47:33.770Z,98909.89
2018-05-24T17:50:01.363Z,98923.33
2018-05-24T17:52:28.945Z,98922.83
2018-05-24T17:54:56.722Z,98923.85
2018-05-24T17:57:24.541Z,98919.18
2018-05-24T17:59:52.173Z,98915.41
2018-05-24T18:02:19.757Z,98917.93
2018-05-24T18:04:47.339Z,98926.27
2018-05-24T18:07:14.923Z,98924.04
2018-05-24T18:09:42.499Z,98935.72
2018-05-24T18:12:10.350Z,98928.81
2018-05-24T18:14:38.169Z,98927.59
2018-05-24T18:17:05.987Z,98929.89
2018-05-24T18:19:33.564Z,98934.05
2018-05-24T18:22:01.328Z,98936.25
2018-05-24T18:24:28.902Z,98940.58
2018-05-24T18:26:56.483Z,98949.73
2018-05-24T18:29:24.078Z,98944.11
2018-05-24T18:31:51.896Z,98947.65
2018-05-24T18:34:19.536Z,98947.63
2018-05-24T18:36:47.301Z,98955.61
2018-05-24T18:39:14.884Z,98953.78
2018-05-24T18:41:42.477Z,98954.80
2018-05-24T18:44:10.288Z,98959.05
2018-05-24T18:46:37.879Z,98963.40
2018-05-24T18:49:05.463Z,98966.63
2018-05-24T18:51:33.132Z,98963.11
2018-05-24T18:54:00.959Z,98965.39
2018-05-24T18:56:28.551Z,98971.57
2018-05-24T18:58:56.140Z,98973.66
2018-05-24T19:01:23.718Z,98965.37
2018-05-24T19:03:51.531Z,98968.70
2018-05-24T19:06:19.351Z,98966.84
2018-05-24T19:08:46.944Z,98970.23
2018-05-24T19:11:14.664Z,98973.53
2018-05-24T19:13:42.505Z,98969.92
2018-05-24T19:16:10.325Z,98978.03
2018-05-24T19:18:38.046Z,98963.98
2018-05-24T19:21:06.569Z,98971.93
2018-05-24T19:23:34.148Z,98973.42
2018-05-24T19:26:03.006Z,98977.73
2018-05-24T19:28:30.570Z,98979.20
2018-05-24T19:30:58.418Z,98980.53
2018-05-24T19:33:26.414Z,98983.13
2018-05-24T19:35:54.057Z,98973.42
2018-05-24T19:38:21.699Z,98982.98
2018-05-24T19:40:49.560Z,98983.84
2018-05-24T19:43:17.160Z,98982.52
2018-05-24T19:45:44.808Z,98993.06
2018-05-24T19:48:12.494Z,98995.84
2018-05-24T19:50:40.078Z,98994.86
2018-05-24T19:53:07.786Z,98984.77
2018-05-24T19:55:35.377Z,98992.33
2018-05-24T19:58:02.961Z,98992.12
2018-05-24T20:00:30.563Z,98990.51
2018-05-24T20:02:58.277Z,98993.03
2018-05-24T20:05:25.928Z,98984.27
2018-05-24T20:07:53.517Z,98980.95
2018-05-24T20:10:21.170Z,98981.59
2018-05-24T20:12:48.765Z,98976.81
2018-05-24T20:15:16.364Z,98974.47
2018-05-24T20:17:43.959Z,98974.02
2018-05-24T20:20:11.589Z,98971.80
2018-05-24T20:22:39.347Z,98971.98
2018-05-24T20:25:06.929Z,98970.61
2018-05-24T20:27:34.500Z,98973.04
2018-05-24T20:30:02.135Z,98970.18
2018-05-24T20:32:29.975Z,98970.81
2018-05-24T20:34:57.565Z,98962.08
2018-05-24T20:37:25.157Z,98958.96
2018-05-24T20:39:52.809Z,98958.73
2018-05-24T20:42:20.397Z,98961.91
2018-05-24T20:44:48.034Z,98965.95
2018-05-24T20:47:15.613Z,98967.82
2018-05-24T20:49:43.192Z,98964.22
2018-05-24T20:52:10.784Z,98964.91
2018-05-24T20:54:38.430Z,98969.99
2018-05-24T20:57:06.151Z,98964.40
2018-05-24T20:59:33.736Z,98966.74
2018-05-24T21:02:01.320Z,98974.33
2018-05-24T21:04:28.912Z,98973.21
2018-05-24T21:06:56.556Z,98973.36
2018-05-24T21:09:24.205Z,98967.02
2018-05-24T21:11:51.861Z,98974.08
2018-05-24T21:14:19.559Z,98979.15
2018-05-24T21:16:47.141Z,98955.93
2018-05-24T21:19:14.729Z,98965.42
2018-05-24T21:21:42.330Z,98973.25
2018-05-24T21:24:09.924Z,98970.68
2018-05-24T21:26:37.560Z,98972.66
2018-05-24T21:29:05.385Z,98975.86
2018-05-24T21:31:32.972Z,98974.70
2018-05-24T21:34:00.687Z,98972.48
2018-05-24T21:36:28.260Z,98972.66
2018-05-24T21:38:55.909Z,98976.30
2018-05-24T21:41:23.675Z,98982.33
2018-05-24T21:43:51.261Z,98981.55
2018-05-24T21:46:19.015Z,98978.45
2018-05-24T21:48:46.596Z,98977.41
2018-05-24T21:51:14.216Z,98966.30
2018-05-24T21:53:42.009Z,98970.73
2018-05-24T21:56:09.660Z,98973.95
2018-05-24T21:58:37.244Z,98964.26
2018-05-24T22:01:04.921Z,98979.98
2018-05-24T22:03:32.537Z,98984.86
2018-05-24T22:06:00.121Z,98984.97
2018-05-24T22:08:27.715Z,98977.55
2018-05-24T22:10:55.515Z,98976.25
2018-05-24T22:13:23.202Z,98970.13
2018-05-24T22:15:50.781Z,98977.59
2018-05-24T22:18:18.434Z,98983.50
2018-05-24T22:20:46.032Z,98982.19
2018-05-24T22:23:13.676Z,98980.77
2018-05-24T22:25:41.296Z,98979.73
2018-05-24T22:28:08.890Z,98978.67
2018-05-24T22:30:36.525Z,98978.41
2018-05-24T22:33:04.355Z,98979.62
2018-05-24T22:35:31.940Z,98974.05
2018-05-24T22:37:59.524Z,98974.41
2018-05-24T22:40:27.310Z,98952.65
2018-05-24T22:42:54.900Z,98965.50
2018-05-24T22:45:22.488Z,98966.19
2018-05-24T22:47:50.141Z,98959.00
2018-05-24T22:50:17.720Z,98964.80
2018-05-24T22:52:45.309Z,98961.17
2018-05-24T22:55:12.911Z,98965.42
2018-05-24T22:57:40.474Z,98963.77
2018-05-24T23:00:08.251Z,98956.41
2018-05-24T23:02:36.072Z,98948.71
2018-05-24T23:05:03.828Z,98953.72
2018-05-24T23:07:31.380Z,98958.30
2018-05-24T23:09:58.964Z,98957.20
2018-05-24T23:12:26.625Z,98945.00
2018-05-24T23:14:54.203Z,98955.67
2018-05-24T23:17:21.798Z,98956.30
2018-05-24T23:19:49.598Z,98956.16
2018-05-24T23:22:29.049Z,98944.52
2018-05-24T23:24:56.642Z,98943.03
2018-05-24T23:27:24.219Z,98948.84
2018-05-24T23:29:51.814Z,98947.94
2018-05-24T23:32:19.590Z,98944.11
2018-05-24T23:34:47.257Z,98943.34
2018-05-24T23:37:14.842Z,98940.76
2018-05-24T23:39:42.476Z,98935.51
2018-05-24T23:42:10.282Z,98938.47
2018-05-24T23:44:38.021Z,98932.16
2018-05-24T23:47:05.840Z,98935.15
2018-05-24T23:49:33.432Z,98934.01
2018-05-24T23:52:01.036Z,98937.94
2018-05-24T23:54:28.796Z,98941.63
2018-05-24T23:56:56.432Z,98936.91
2018-05-24T23:59:24.200Z,98939.85
